createdAt,value
2023-03-19T00:00:51.303Z,99894.00
2023-03-19T00:03:19.029Z,99890.00
2023-03-19T00:05:53.505Z,99895.00
2023-03-19T00:08:23.216Z,99905.00
2023-03-19T00:10:51.573Z,99901.00
2023-03-19T00:13:19.554Z,99910.00
2023-03-19T00:15:50.909Z,99906.00
2023-03-19T00:18:18.773Z,99877.00
2023-03-19T00:20:46.439Z,99869.00
2023-03-19T00:23:14.262Z,99870.00
2023-03-19T00:25:42.385Z,99870.00
2023-03-19T00:28:10.123Z,99878.00
2023-03-19T00:30:37.806Z,99872.00
2023-03-19T00:33:05.650Z,99854.00
2023-03-19T00:35:34.271Z,99874.00
2023-03-19T00:38:02.096Z,99874.00
2023-03-19T00:40:33.003Z,99868.00
2023-03-19T00:43:00.750Z,99841.00
2023-03-19T00:45:32.675Z,99849.00
2023-03-19T00:48:00.682Z,99841.00
2023-03-19T00:50:28.533Z,99845.00
2023-03-19T00:52:57.388Z,99839.00
2023-03-19T00:55:25.951Z,99847.00
2023-03-19T00:57:53.581Z,99845.00
2023-03-19T01:00:21.312Z,99838.00
2023-03-19T01:02:49.169Z,99838.00
2023-03-19T01:05:16.723Z,99846.00
2023-03-19T01:07:44.409Z,99848.00
2023-03-19T01:10:12.268Z,99846.00
2023-03-19T01:12:40.100Z,99849.00
2023-03-19T01:15:08.956Z,99845.00
2023-03-19T01:17:36.626Z,99851.00
2023-03-19T01:20:05.063Z,99852.00
2023-03-19T01:22:34.956Z,99848.00
2023-03-19T01:25:04.584Z,99848.00
2023-03-19T01:27:32.940Z,99835.00
2023-03-19T01:30:01.564Z,99835.00
2023-03-19T01:32:47.684Z,99838.00
2023-03-19T01:35:35.739Z,99830.00
2023-03-19T01:38:04.024Z,99829.00
2023-03-19T01:40:33.218Z,99829.00
2023-03-19T01:43:15.090Z,99833.00
2023-03-19T01:45:52.466Z,99813.00
2023-03-19T01:48:40.236Z,99819.00
2023-03-19T01:51:13.840Z,99826.00
2023-03-19T01:53:52.264Z,99831.00
2023-03-19T01:56:45.052Z,99835.00
2023-03-19T01:59:46.288Z,99833.00
2023-03-19T04:47:39.686Z,99869.00
2023-03-19T04:50:09.624Z,99872.00
2023-03-19T04:52:37.696Z,99868.00
2023-03-19T04:55:06.516Z,99871.00
2023-03-19T04:57:45.210Z,99866.00
2023-03-19T05:00:14.767Z,99861.00
2023-03-19T05:03:09.372Z,99870.00
2023-03-19T05:05:37.287Z,99866.00
2023-03-19T05:08:08.963Z,99874.00
2023-03-19T05:10:37.764Z,99872.00
2023-03-19T05:13:05.718Z,99871.00
2023-03-19T05:15:34.464Z,99863.00
2023-03-19T05:18:08.935Z,99862.00
2023-03-19T05:20:46.200Z,99861.00
2023-03-19T05:23:19.614Z,99855.00
2023-03-19T05:25:58.181Z,99863.00
2023-03-19T05:28:45.823Z,99861.00
2023-03-19T05:31:15.525Z,99864.00
2023-03-19T05:33:47.926Z,99871.00
2023-03-19T05:36:16.218Z,99874.00
2023-03-19T05:38:52.804Z,99880.00
2023-03-19T05:41:26.780Z,99877.00
2023-03-19T05:43:59.866Z,99880.00
2023-03-19T05:46:48.598Z,99889.00
2023-03-19T05:49:18.111Z,99881.00
2023-03-19T05:51:46.012Z,99885.00
2023-03-19T05:54:14.035Z,99887.00
2023-03-19T05:57:10.890Z,99895.00
2023-03-19T05:59:47.972Z,99896.00
2023-03-19T06:02:34.507Z,99902.00
2023-03-19T06:05:22.683Z,99893.00
2023-03-19T06:07:53.048Z,99897.00
2023-03-19T06:10:36.473Z,99892.00
2023-03-19T06:13:08.919Z,99902.00
2023-03-19T06:15:54.008Z,99905.00
2023-03-19T06:18:25.942Z,99900.00
2023-03-19T06:20:53.873Z,99899.00
2023-03-19T06:23:21.679Z,99894.00
2023-03-19T06:25:49.843Z,99893.00
2023-03-19T06:28:18.805Z,99899.00
2023-03-19T06:30:46.742Z,99900.00
2023-03-19T06:33:33.839Z,99903.00
2023-03-19T06:36:04.416Z,99896.00
2023-03-19T06:38:34.314Z,99904.00
2023-03-19T06:41:02.086Z,99909.00
2023-03-19T06:43:29.754Z,99911.00
2023-03-19T06:45:57.733Z,99919.00
2023-03-19T06:48:25.458Z,99919.00
2023-03-19T06:50:52.971Z,99932.00
2023-03-19T06:53:20.487Z,99926.00
2023-03-19T06:55:48.072Z,99921.00
2023-03-19T06:58:15.958Z,99923.00
2023-03-19T07:00:43.657Z,99926.00
2023-03-19T07:03:11.635Z,99937.00
2023-03-19T07:05:39.305Z,99936.00
2023-03-19T07:08:12.216Z,99935.00
2023-03-19T07:10:39.900Z,99950.00
2023-03-19T07:13:07.457Z,99943.00
2023-03-19T07:15:36.387Z,99946.00
2023-03-19T07:18:04.126Z,99954.00
2023-03-19T07:20:31.961Z,99951.00
2023-03-19T07:22:59.566Z,99951.00
2023-03-19T07:25:27.216Z,99954.00
2023-03-19T07:27:56.091Z,99955.00
2023-03-19T07:30:24.429Z,99959.00
2023-03-19T07:32:52.148Z,99960.00
2023-03-19T07:35:19.822Z,99959.00
2023-03-19T07:37:47.473Z,99970.00
2023-03-19T07:40:15.093Z,99975.00
2023-03-19T07:42:45.025Z,99974.00
2023-03-19T07:45:13.660Z,99986.00
2023-03-19T07:47:41.392Z,99980.00
2023-03-19T07:50:09.824Z,99982.00
2023-03-19T07:52:37.631Z,99986.00
2023-03-19T07:55:05.496Z,99990.00
2023-03-19T07:57:33.163Z,100001.00
2023-03-19T08:00:00.858Z,100007.00
2023-03-19T08:02:28.614Z,100012.00
2023-03-19T08:04:56.440Z,100009.00
2023-03-19T08:07:24.130Z,100026.00
2023-03-19T08:09:51.823Z,100025.00
2023-03-19T08:12:19.422Z,100030.00
2023-03-19T08:14:47.105Z,100035.00
2023-03-19T08:17:14.595Z,100040.00
2023-03-19T08:19:42.381Z,100031.00
2023-03-19T08:22:10.210Z,100037.00
2023-03-19T08:24:37.869Z,100036.00
2023-03-19T08:27:05.618Z,100041.00
2023-03-19T08:29:33.131Z,100042.00
2023-03-19T08:32:01.554Z,100044.00
2023-03-19T08:34:29.144Z,100045.00
2023-03-19T08:36:56.852Z,100052.00
2023-03-19T08:39:24.425Z,100043.00
2023-03-19T08:41:52.225Z,100039.00
2023-03-19T08:44:19.980Z,100050.00
2023-03-19T08:46:47.595Z,100037.00
2023-03-19T08:49:15.741Z,100027.00
2023-03-19T08:51:43.582Z,100027.00
2023-03-19T08:54:11.501Z,100025.00
2023-03-19T08:56:39.095Z,100021.00
2023-03-19T08:59:06.693Z,100012.00
2023-03-19T09:01:34.383Z,100008.00
2023-03-19T09:04:02.398Z,100007.00
2023-03-19T09:06:30.273Z,100000.00
2023-03-19T09:08:57.779Z,100000.00
2023-03-19T09:11:25.536Z,99999.00
2023-03-19T09:13:53.129Z,99998.00
2023-03-19T09:16:20.717Z,100005.00
2023-03-19T09:18:48.276Z,100005.00
2023-03-19T09:21:15.830Z,100008.00
2023-03-19T09:23:43.579Z,100005.00
2023-03-19T09:26:11.523Z,100007.00
2023-03-19T09:28:39.309Z,100011.00
2023-03-19T09:31:09.408Z,100012.00
2023-03-19T09:33:37.247Z,100015.00
2023-03-19T09:36:05.145Z,100020.00
2023-03-19T09:38:32.789Z,100015.00
2023-03-19T09:41:06.636Z,100012.00
2023-03-19T09:43:37.267Z,100021.00
2023-03-19T09:46:06.615Z,100020.00
2023-03-19T09:48:43.599Z,100023.00
2023-03-19T09:51:14.033Z,100022.00
2023-03-19T09:54:05.391Z,100018.00
2023-03-19T09:56:33.212Z,100015.00
2023-03-19T09:59:01.125Z,100011.00
2023-03-19T10:01:35.783Z,100011.00
2023-03-19T10:04:07.510Z,100015.00
2023-03-19T10:06:35.772Z,100013.00
2023-03-19T10:09:03.489Z,100014.00
2023-03-19T10:11:50.677Z,100014.00
2023-03-19T10:14:30.755Z,100014.00
2023-03-19T10:16:58.642Z,100020.00
2023-03-19T10:19:30.828Z,100018.00
2023-03-19T10:22:03.833Z,100012.00
2023-03-19T10:24:33.400Z,100017.00
2023-03-19T10:27:02.163Z,100019.00
2023-03-19T10:29:29.865Z,100015.00
2023-03-19T10:32:00.988Z,100008.00
2023-03-19T10:34:36.021Z,100004.00
2023-03-19T10:37:12.804Z,100007.00
2023-03-19T10:39:41.034Z,100006.00
2023-03-19T10:42:27.808Z,100012.00
2023-03-19T10:45:15.868Z,100010.00
2023-03-19T10:47:43.670Z,100008.00
2023-03-19T10:50:16.364Z,100000.00
2023-03-19T10:52:44.220Z,99999.00
2023-03-19T10:55:16.286Z,99999.00
2023-03-19T10:57:44.457Z,100008.00
2023-03-19T11:00:19.634Z,100005.00
2023-03-19T11:02:48.841Z,100004.00
2023-03-19T11:05:23.200Z,100000.00
2023-03-19T11:07:51.792Z,100007.00
2023-03-19T11:10:19.533Z,100006.00
2023-03-19T11:12:55.314Z,100004.00
2023-03-19T11:15:23.393Z,100004.00
2023-03-19T11:17:57.707Z,100010.00
2023-03-19T11:20:30.697Z,99999.00
2023-03-19T11:23:02.920Z,100008.00
2023-03-19T11:25:41.768Z,100007.00
2023-03-19T11:28:13.313Z,100006.00
2023-03-19T11:30:53.173Z,100006.00
2023-03-19T11:33:37.234Z,99999.00
2023-03-19T11:36:05.001Z,100004.00
2023-03-19T11:38:42.396Z,100002.00
2023-03-19T11:41:13.715Z,100010.00
2023-03-19T11:43:41.590Z,100007.00
2023-03-19T11:46:15.432Z,99999.00
2023-03-19T11:49:01.618Z,100002.00
2023-03-19T11:51:48.174Z,100000.00
2023-03-19T11:54:28.004Z,100000.00
2023-03-19T11:57:03.977Z,100000.00
2023-03-19T11:59:52.031Z,99997.00
2023-03-19T12:02:33.349Z,99995.00
2023-03-19T12:05:34.191Z,99999.00
2023-03-19T12:08:27.920Z,100003.00
2023-03-19T12:10:58.414Z,99996.00
2023-03-19T12:13:35.822Z,99992.00
2023-03-19T12:16:13.677Z,99998.00
2023-03-19T12:18:44.786Z,99994.00
2023-03-19T12:21:15.355Z,99998.00
2023-03-19T12:24:01.408Z,100001.00
2023-03-19T12:26:32.303Z,99991.00
2023-03-19T12:29:10.557Z,99994.00
2023-03-19T12:31:38.468Z,99996.00
2023-03-19T12:34:29.970Z,99989.00
2023-03-19T12:37:01.046Z,99991.00
2023-03-19T12:39:30.947Z,99982.00
2023-03-19T12:41:58.944Z,99985.00
2023-03-19T12:44:34.015Z,99979.00
2023-03-19T12:47:02.950Z,99982.00
2023-03-19T12:49:30.780Z,99980.00
2023-03-19T12:52:24.869Z,99983.00
2023-03-19T12:55:08.469Z,99985.00
2023-03-19T12:57:38.007Z,99989.00
2023-03-19T13:00:32.385Z,99992.00
2023-03-19T13:03:19.173Z,99980.00
2023-03-19T13:05:56.199Z,99991.00
2023-03-19T13:08:27.992Z,99981.00
2023-03-19T13:10:55.891Z,99981.00
2023-03-19T13:13:27.399Z,99987.00
2023-03-19T13:15:55.826Z,99986.00
2023-03-19T13:18:29.305Z,99979.00
2023-03-19T13:21:09.207Z,99977.00
2023-03-19T13:23:38.517Z,99985.00
2023-03-19T13:26:08.355Z,99979.00
2023-03-19T13:28:37.297Z,99972.00
2023-03-19T13:31:08.730Z,99975.00
2023-03-19T13:33:38.820Z,99970.00
2023-03-19T13:36:07.886Z,99971.00
2023-03-19T13:38:43.942Z,99959.00
2023-03-19T13:41:30.767Z,99965.00
2023-03-19T13:43:58.889Z,99965.00
2023-03-19T13:46:29.818Z,99954.00
2023-03-19T13:49:07.056Z,99962.00
2023-03-19T13:51:35.109Z,99968.00
2023-03-19T13:54:08.258Z,99968.00
2023-03-19T13:56:56.186Z,99973.00
2023-03-19T13:59:50.126Z,99968.00
2023-03-19T14:02:27.389Z,99968.00
2023-03-19T14:04:58.379Z,99962.00
2023-03-19T14:07:29.524Z,99960.00
2023-03-19T14:09:57.794Z,99947.00
2023-03-19T14:12:32.080Z,99954.00
2023-03-19T14:15:05.466Z,99959.00
2023-03-19T14:17:34.270Z,99960.00
2023-03-19T14:20:12.552Z,99958.00
2023-03-19T14:22:59.064Z,99955.00
2023-03-19T14:25:27.997Z,99952.00
2023-03-19T14:27:56.364Z,99952.00
2023-03-19T14:30:27.724Z,99950.00
2023-03-19T14:32:57.131Z,99961.00
2023-03-19T14:35:25.887Z,99959.00
2023-03-19T14:37:54.530Z,99961.00
2023-03-19T14:40:48.493Z,99969.00
2023-03-19T14:43:47.145Z,99975.00
2023-03-19T14:46:34.044Z,99983.00
2023-03-19T14:49:07.534Z,99988.00
2023-03-19T14:51:54.050Z,100008.00
2023-03-19T14:54:21.858Z,100015.00
2023-03-19T14:56:50.685Z,100015.00
2023-03-19T14:59:19.120Z,100006.00
2023-03-19T15:01:49.338Z,99991.00
2023-03-19T15:04:17.256Z,99996.00
2023-03-19T15:06:46.451Z,99991.00
2023-03-19T15:09:40.223Z,99980.00
2023-03-19T15:12:13.799Z,99977.00
2023-03-19T15:14:53.604Z,99970.00
2023-03-19T15:17:21.333Z,99973.00
2023-03-19T15:19:48.983Z,99976.00
2023-03-19T15:22:20.063Z,99972.00
2023-03-19T15:24:48.181Z,99974.00
2023-03-19T15:27:21.590Z,99981.00
2023-03-19T15:29:51.546Z,99982.00
2023-03-19T15:33:09.119Z,99981.00
2023-03-19T15:35:31.154Z,99979.00
2023-03-19T15:38:00.152Z,99973.00
2023-03-19T15:40:30.441Z,99973.00
2023-03-19T15:42:59.041Z,99969.00
2023-03-19T15:45:26.799Z,99970.00
2023-03-19T15:47:58.102Z,99967.00
2023-03-19T15:50:26.365Z,99967.00
2023-03-19T15:52:59.960Z,99970.00
2023-03-19T15:55:27.885Z,99968.00
2023-03-19T15:57:56.296Z,99976.00
2023-03-19T16:00:24.830Z,99972.00
2023-03-19T16:02:53.051Z,99973.00
2023-03-19T16:05:24.763Z,99976.00
2023-03-19T16:08:00.004Z,99980.00
2023-03-19T16:10:43.492Z,99982.00
2023-03-19T16:13:26.270Z,99975.00
2023-03-19T16:15:55.141Z,99982.00
2023-03-19T16:18:24.025Z,99982.00
2023-03-19T16:21:02.219Z,99991.00
2023-03-19T16:23:31.620Z,99992.00
2023-03-19T16:26:03.812Z,99997.00
2023-03-19T16:28:31.662Z,99990.00
2023-03-19T16:30:59.355Z,100005.00
2023-03-19T16:33:26.980Z,99995.00
2023-03-19T16:35:54.702Z,100003.00
2023-03-19T16:38:23.926Z,100015.00
2023-03-19T16:41:10.431Z,100018.00
2023-03-19T16:43:38.189Z,100019.00
2023-03-19T16:46:10.981Z,100019.00
2023-03-19T16:48:39.083Z,100020.00
2023-03-19T16:51:18.410Z,100021.00
2023-03-19T16:53:46.617Z,100019.00
2023-03-19T16:56:14.980Z,100024.00
2023-03-19T16:58:45.851Z,100023.00
2023-03-19T17:01:20.768Z,100025.00
2023-03-19T17:03:49.761Z,100026.00
2023-03-19T17:06:17.790Z,100022.00
2023-03-19T17:08:45.571Z,100024.00
2023-03-19T17:11:29.101Z,100022.00
2023-03-19T17:13:57.773Z,100029.00
2023-03-19T17:16:26.209Z,100027.00
2023-03-19T17:18:54.056Z,100033.00
2023-03-19T17:21:22.625Z,100038.00
2023-03-19T17:23:50.694Z,100053.00
2023-03-19T17:26:20.034Z,100055.00
2023-03-19T17:28:47.882Z,100065.00
2023-03-19T17:31:21.480Z,100062.00
2023-03-19T17:33:49.375Z,100069.00
2023-03-19T17:36:17.204Z,100080.00
2023-03-19T17:38:45.056Z,100086.00
2023-03-19T17:41:14.258Z,100093.00
2023-03-19T17:43:41.960Z,100091.00
2023-03-19T17:46:11.473Z,100093.00
2023-03-19T17:48:39.205Z,100093.00
2023-03-19T17:51:07.292Z,100088.00
2023-03-19T17:53:35.242Z,100099.00
2023-03-19T17:56:03.070Z,100096.00
2023-03-19T17:58:31.068Z,100098.00
2023-03-19T18:00:58.964Z,100109.00
2023-03-19T18:03:27.259Z,100110.00
2023-03-19T18:05:55.061Z,100117.00
2023-03-19T18:08:23.992Z,100116.00
2023-03-19T18:10:51.619Z,100119.00
2023-03-19T18:13:19.222Z,100121.00
2023-03-19T18:15:47.113Z,100121.00
2023-03-19T18:18:16.368Z,100119.00
2023-03-19T18:20:43.994Z,100121.00
2023-03-19T18:23:11.993Z,100132.00
2023-03-19T18:25:39.791Z,100131.00
2023-03-19T18:28:08.696Z,100125.00
2023-03-19T18:30:37.220Z,100140.00
2023-03-19T18:33:06.449Z,100129.00
2023-03-19T18:35:36.347Z,100131.00
2023-03-19T18:38:04.191Z,100138.00
2023-03-19T18:40:33.394Z,100136.00
2023-03-19T18:43:02.201Z,100141.00
2023-03-19T18:45:30.867Z,100140.00
2023-03-19T18:47:59.718Z,100121.00
2023-03-19T18:50:32.914Z,100138.00
2023-03-19T18:53:00.752Z,100137.00
2023-03-19T18:55:31.635Z,100136.00
2023-03-19T18:58:00.185Z,100142.00
2023-03-19T19:00:32.387Z,100139.00
2023-03-19T19:02:59.988Z,100137.00
2023-03-19T19:05:28.983Z,100142.00
2023-03-19T19:07:57.540Z,100142.00
2023-03-19T19:10:25.711Z,100145.00
2023-03-19T19:12:53.881Z,100151.00
2023-03-19T19:15:34.446Z,100149.00
2023-03-19T19:18:14.018Z,100158.00
2023-03-19T19:20:41.789Z,100165.00
2023-03-19T19:23:10.335Z,100157.00
2023-03-19T19:25:38.778Z,100164.00
2023-03-19T19:28:07.550Z,100173.00
2023-03-19T19:30:35.458Z,100177.00
2023-03-19T19:33:04.799Z,100163.00
2023-03-19T19:35:32.666Z,100178.00
2023-03-19T19:38:00.374Z,100177.00
2023-03-19T19:40:29.949Z,100174.00
2023-03-19T19:42:58.395Z,100182.00
2023-03-19T19:45:26.416Z,100182.00
2023-03-19T19:47:54.297Z,100186.00
2023-03-19T19:50:30.996Z,100189.00
2023-03-19T19:53:01.952Z,100191.00
2023-03-19T19:55:29.755Z,100196.00
2023-03-19T19:58:00.302Z,100192.00
2023-03-19T20:00:32.480Z,100187.00
2023-03-19T20:03:00.583Z,100187.00
2023-03-19T20:05:32.565Z,100180.00
2023-03-19T20:08:01.354Z,100192.00
2023-03-19T20:10:30.453Z,100188.00
2023-03-19T20:13:04.529Z,100191.00
2023-03-19T20:15:34.372Z,100193.00
2023-03-19T20:18:02.860Z,100193.00
2023-03-19T20:20:32.565Z,100197.00
2023-03-19T20:23:01.765Z,100195.00
2023-03-19T20:25:33.759Z,100197.00
2023-03-19T20:28:01.704Z,100198.00
2023-03-19T20:30:30.734Z,100195.00
2023-03-19T20:32:59.602Z,100196.00
2023-03-19T20:35:28.560Z,100185.00
2023-03-19T20:37:56.976Z,100191.00
2023-03-19T20:40:28.009Z,100189.00
2023-03-19T20:42:55.972Z,100197.00
2023-03-19T20:45:24.600Z,100204.00
2023-03-19T20:47:53.165Z,100205.00
2023-03-19T20:50:22.805Z,100213.00
2023-03-19T20:52:51.142Z,100218.00
2023-03-19T20:55:19.998Z,100212.00
2023-03-19T20:57:48.457Z,100211.00
2023-03-19T21:00:21.466Z,100210.00
2023-03-19T21:02:50.012Z,100219.00
2023-03-19T21:05:17.942Z,100226.00
2023-03-19T21:07:46.505Z,100219.00
2023-03-19T21:10:18.406Z,100214.00
2023-03-19T21:12:46.428Z,100220.00
2023-03-19T21:15:14.238Z,100203.00
2023-03-19T21:17:42.375Z,100225.00
2023-03-19T21:20:30.434Z,100228.00
2023-03-19T21:22:59.277Z,100236.00
2023-03-19T21:25:30.498Z,100232.00
2023-03-19T21:27:59.733Z,100228.00
2023-03-19T21:30:27.666Z,100229.00
2023-03-19T21:32:58.085Z,100229.00
2023-03-19T21:35:26.420Z,100232.00
2023-03-19T21:37:54.589Z,100232.00
2023-03-19T21:40:23.335Z,100229.00
2023-03-19T21:42:52.713Z,100223.00
2023-03-19T21:45:22.650Z,100232.00
2023-03-19T21:47:50.550Z,100229.00
2023-03-19T21:50:19.578Z,100236.00
2023-03-19T21:52:58.731Z,100217.00
2023-03-19T21:55:28.501Z,100228.00
2023-03-19T21:57:57.229Z,100228.00
2023-03-19T22:00:25.397Z,100221.00
2023-03-19T22:02:53.468Z,100226.00
2023-03-19T22:05:25.169Z,100228.00
2023-03-19T22:07:53.053Z,100227.00
2023-03-19T22:10:22.348Z,100224.00
2023-03-19T22:12:50.630Z,100226.00
2023-03-19T22:15:23.554Z,100234.00
2023-03-19T22:17:51.549Z,100227.00
2023-03-19T22:20:20.502Z,100235.00
2023-03-19T22:22:48.471Z,100231.00
2023-03-19T22:25:16.829Z,100233.00
2023-03-19T22:27:45.118Z,100237.00
2023-03-19T22:30:36.005Z,100230.00
2023-03-19T22:33:05.684Z,100237.00
2023-03-19T22:35:33.788Z,100232.00
2023-03-19T22:38:01.808Z,100226.00
2023-03-19T22:40:29.528Z,100233.00
2023-03-19T22:42:57.465Z,100230.00
2023-03-19T22:45:29.040Z,100227.00
2023-03-19T22:48:00.009Z,100229.00
2023-03-19T22:50:28.729Z,100226.00
2023-03-19T22:52:56.858Z,100224.00
2023-03-19T22:55:24.997Z,100219.00
2023-03-19T22:57:52.644Z,100220.00
2023-03-19T23:00:21.451Z,100220.00
2023-03-19T23:02:54.902Z,100223.00
2023-03-19T23:05:26.843Z,100215.00
2023-03-19T23:07:55.291Z,100215.00
2023-03-19T23:10:24.005Z,100215.00
2023-03-19T23:12:52.560Z,100213.00
2023-03-19T23:15:21.065Z,100214.00
2023-03-19T23:17:49.162Z,100208.00
2023-03-19T23:20:18.515Z,100214.00
2023-03-19T23:22:46.907Z,100211.00
2023-03-19T23:25:15.284Z,100215.00
2023-03-19T23:27:43.101Z,100215.00
2023-03-19T23:30:20.311Z,100212.00
2023-03-19T23:32:48.586Z,100222.00
2023-03-19T23:35:21.444Z,100221.00
2023-03-19T23:37:49.553Z,100214.00
2023-03-19T23:40:17.865Z,100206.00
2023-03-19T23:42:46.523Z,100215.00
2023-03-19T23:45:34.894Z,100217.00
2023-03-19T23:48:06.864Z,100217.00
2023-03-19T23:50:34.675Z,100218.00
2023-03-19T23:53:02.538Z,100217.00
2023-03-19T23:55:30.505Z,100212.00
2023-03-19T23:57:58.670Z,100223.00
